sensor_id;sensor_type;location;lat;lon;timestamp;temperature;humidity
16271;DHT22;8243;49.048;8.396;2024-03-02T00:01:12;3.90;99.90
16271;DHT22;8243;49.048;8.396;2024-03-02T00:03:38;3.90;99.90
16271;DHT22;8243;49.048;8.396;2024-03-02T00:06:04;4.20;99.90
16271;DHT22;8243;49.048;8.396;2024-03-02T00:08:30;4.10;99.90
16271;DHT22;8243;49.048;8.396;2024-03-02T00:11:00;4.00;99.90
16271;DHT22;8243;49.048;8.396;2024-03-02T00:13:26;4.10;99.90
16271;DHT22;8243;49.048;8.396;2024-03-02T00:15:56;4.10;99.90
16271;DHT22;8243;49.048;8.396;2024-03-02T00:18:31;3.80;99.90
16271;DHT22;8243;49.048;8.396;2024-03-02T00:20:58;4.00;99.90
16271;DHT22;8243;49.048;8.396;2024-03-02T00:23:27;3.90;99.90
16271;DHT22;8243;49.048;8.396;2024-03-02T00:25:54;3.90;99.90
16271;DHT22;8243;49.048;8.396;2024-03-02T00:28:27;3.80;99.90
16271;DHT22;8243;49.048;8.396;2024-03-02T00:31:13;3.80;99.90
16271;DHT22;8243;49.048;8.396;2024-03-02T00:33:42;3.70;99.90
16271;DHT22;8243;49.048;8.396;2024-03-02T00:36:09;3.70;99.90
16271;DHT22;8243;49.048;8.396;2024-03-02T00:38:47;3.70;99.90
16271;DHT22;8243;49.048;8.396;2024-03-02T00:41:22;3.80;99.90
16271;DHT22;8243;49.048;8.396;2024-03-02T00:44:02;3.50;99.90
16271;DHT22;8243;49.048;8.396;2024-03-02T00:46:39;3.40;99.90
16271;DHT22;8243;49.048;8.396;2024-03-02T00:51:34;3.60;99.90
16271;DHT22;8243;49.048;8.396;2024-03-02T00:54:04;3.60;99.90
16271;DHT22;8243;49.048;8.396;2024-03-02T00:56:31;3.40;99.90
16271;DHT22;8243;49.048;8.396;2024-03-02T00:58:57;3.30;99.90
16271;DHT22;8243;49.048;8.396;2024-03-02T01:01:23;3.30;99.90
16271;DHT22;8243;49.048;8.396;2024-03-02T01:04:03;3.40;99.90
16271;DHT22;8243;49.048;8.396;2024-03-02T01:06:29;3.50;99.90
16271;DHT22;8243;49.048;8.396;2024-03-02T01:09:05;3.30;99.90
16271;DHT22;8243;49.048;8.396;2024-03-02T01:11:31;3.40;99.90
16271;DHT22;8243;49.048;8.396;2024-03-02T01:13:56;3.50;99.90
16271;DHT22;8243;49.048;8.396;2024-03-02T01:16:22;3.50;99.90
16271;DHT22;8243;49.048;8.396;2024-03-02T01:18:49;3.40;99.90
16271;DHT22;8243;49.048;8.396;2024-03-02T01:21:15;3.50;99.90
16271;DHT22;8243;49.048;8.396;2024-03-02T01:23:41;3.50;99.90
16271;DHT22;8243;49.048;8.396;2024-03-02T01:26:08;3.30;99.90
16271;DHT22;8243;49.048;8.396;2024-03-02T01:28:34;3.20;99.90
16271;DHT22;8243;49.048;8.396;2024-03-02T01:30:59;3.30;99.90
16271;DHT22;8243;49.048;8.396;2024-03-02T01:33:25;3.20;99.90
16271;DHT22;8243;49.048;8.396;2024-03-02T01:35:54;3.20;99.90
16271;DHT22;8243;49.048;8.396;2024-03-02T01:38:20;3.30;99.90
16271;DHT22;8243;49.048;8.396;2024-03-02T01:40:46;3.30;99.90
16271;DHT22;8243;49.048;8.396;2024-03-02T01:43:11;2.90;99.90
16271;DHT22;8243;49.048;8.396;2024-03-02T01:45:41;3.00;99.90
16271;DHT22;8243;49.048;8.396;2024-03-02T01:48:07;2.80;99.90
16271;DHT22;8243;49.048;8.396;2024-03-02T01:50:33;2.90;99.90
16271;DHT22;8243;49.048;8.396;2024-03-02T01:52:59;2.80;99.90
16271;DHT22;8243;49.048;8.396;2024-03-02T01:55:25;3.00;99.90
16271;DHT22;8243;49.048;8.396;2024-03-02T01:57:52;2.70;99.90
16271;DHT22;8243;49.048;8.396;2024-03-02T02:00:18;2.90;99.90
16271;DHT22;8243;49.048;8.396;2024-03-02T02:02:44;2.80;99.90
16271;DHT22;8243;49.048;8.396;2024-03-02T02:05:10;2.60;99.90
16271;DHT22;8243;49.048;8.396;2024-03-02T02:07:36;2.60;99.90
16271;DHT22;8243;49.048;8.396;2024-03-02T02:10:07;2.40;99.90
16271;DHT22;8243;49.048;8.396;2024-03-02T02:12:32;2.50;99.90
16271;DHT22;8243;49.048;8.396;2024-03-02T02:14:58;2.60;99.90
16271;DHT22;8243;49.048;8.396;2024-03-02T02:17:24;2.30;99.90
16271;DHT22;8243;49.048;8.396;2024-03-02T02:19:50;2.40;99.90
16271;DHT22;8243;49.048;8.396;2024-03-02T02:22:16;2.60;99.90
16271;DHT22;8243;49.048;8.396;2024-03-02T02:24:42;2.40;99.90
16271;DHT22;8243;49.048;8.396;2024-03-02T02:27:08;2.50;99.90
16271;DHT22;8243;49.048;8.396;2024-03-02T02:29:34;2.40;99.90
16271;DHT22;8243;49.048;8.396;2024-03-02T02:31:59;2.40;99.90
16271;DHT22;8243;49.048;8.396;2024-03-02T02:34:30;2.30;99.90
16271;DHT22;8243;49.048;8.396;2024-03-02T02:36:58;2.20;99.90
16271;DHT22;8243;49.048;8.396;2024-03-02T02:39:23;2.40;99.90
16271;DHT22;8243;49.048;8.396;2024-03-02T02:41:51;2.20;99.90
16271;DHT22;8243;49.048;8.396;2024-03-02T02:44:16;2.30;99.90
16271;DHT22;8243;49.048;8.396;2024-03-02T02:46:44;2.20;99.90
16271;DHT22;8243;49.048;8.396;2024-03-02T02:49:12;2.00;99.90
16271;DHT22;8243;49.048;8.396;2024-03-02T02:51:37;2.20;99.90
16271;DHT22;8243;49.048;8.396;2024-03-02T02:54:03;2.20;99.90
16271;DHT22;8243;49.048;8.396;2024-03-02T02:56:28;2.20;99.90
16271;DHT22;8243;49.048;8.396;2024-03-02T02:58:54;2.10;99.90
16271;DHT22;8243;49.048;8.396;2024-03-02T03:01:19;2.20;99.90
16271;DHT22;8243;49.048;8.396;2024-03-02T03:03:45;2.10;99.90
16271;DHT22;8243;49.048;8.396;2024-03-02T03:06:11;2.20;99.90
16271;DHT22;8243;49.048;8.396;2024-03-02T03:08:43;2.00;99.90
16271;DHT22;8243;49.048;8.396;2024-03-02T03:11:09;2.00;99.90
16271;DHT22;8243;49.048;8.396;2024-03-02T03:13:34;2.20;99.90
16271;DHT22;8243;49.048;8.396;2024-03-02T03:16:00;1.90;99.90
16271;DHT22;8243;49.048;8.396;2024-03-02T03:18:25;2.10;99.90
16271;DHT22;8243;49.048;8.396;2024-03-02T03:20:51;2.10;99.90
16271;DHT22;8243;49.048;8.396;2024-03-02T03:23:17;1.90;99.90
16271;DHT22;8243;49.048;8.396;2024-03-02T03:25:45;1.90;99.90
16271;DHT22;8243;49.048;8.396;2024-03-02T03:28:19;2.10;99.90
16271;DHT22;8243;49.048;8.396;2024-03-02T03:30:44;2.20;99.90
16271;DHT22;8243;49.048;8.396;2024-03-02T03:33:11;2.10;99.90
16271;DHT22;8243;49.048;8.396;2024-03-02T03:35:36;2.30;99.90
16271;DHT22;8243;49.048;8.396;2024-03-02T03:38:02;2.20;99.90
16271;DHT22;8243;49.048;8.396;2024-03-02T03:40:28;2.00;99.90
16271;DHT22;8243;49.048;8.396;2024-03-02T03:42:53;1.90;99.90
16271;DHT22;8243;49.048;8.396;2024-03-02T03:45:21;2.00;99.90
16271;DHT22;8243;49.048;8.396;2024-03-02T03:47:46;1.90;99.90
16271;DHT22;8243;49.048;8.396;2024-03-02T03:50:12;2.10;99.90
16271;DHT22;8243;49.048;8.396;2024-03-02T03:52:38;2.10;99.90
16271;DHT22;8243;49.048;8.396;2024-03-02T03:55:04;1.90;99.90
16271;DHT22;8243;49.048;8.396;2024-03-02T03:57:32;2.00;99.90
16271;DHT22;8243;49.048;8.396;2024-03-02T03:59:58;1.70;99.90
16271;DHT22;8243;49.048;8.396;2024-03-02T04:02:23;1.90;99.90
16271;DHT22;8243;49.048;8.396;2024-03-02T04:04:50;2.00;99.90
16271;DHT22;8243;49.048;8.396;2024-03-02T04:07:15;2.00;99.90
16271;DHT22;8243;49.048;8.396;2024-03-02T04:09:41;2.00;99.90
16271;DHT22;8243;49.048;8.396;2024-03-02T04:12:06;2.00;99.90
16271;DHT22;8243;49.048;8.396;2024-03-02T04:14:32;1.80;99.90
16271;DHT22;8243;49.048;8.396;2024-03-02T04:16:57;2.10;99.90
16271;DHT22;8243;49.048;8.396;2024-03-02T04:19:23;1.90;99.90
16271;DHT22;8243;49.048;8.396;2024-03-02T04:21:48;1.90;99.90
16271;DHT22;8243;49.048;8.396;2024-03-02T04:24:14;1.80;99.90
16271;DHT22;8243;49.048;8.396;2024-03-02T04:26:39;2.00;99.90
16271;DHT22;8243;49.048;8.396;2024-03-02T04:29:05;1.90;99.90
16271;DHT22;8243;49.048;8.396;2024-03-02T04:31:30;1.70;99.90
16271;DHT22;8243;49.048;8.396;2024-03-02T04:33:56;1.80;99.90
16271;DHT22;8243;49.048;8.396;2024-03-02T04:36:21;1.70;99.90
16271;DHT22;8243;49.048;8.396;2024-03-02T04:38:48;1.70;99.90
16271;DHT22;8243;49.048;8.396;2024-03-02T04:41:13;1.80;99.90
16271;DHT22;8243;49.048;8.396;2024-03-02T04:43:39;1.70;99.90
16271;DHT22;8243;49.048;8.396;2024-03-02T04:46:06;1.70;99.90
16271;DHT22;8243;49.048;8.396;2024-03-02T04:48:32;1.60;99.90
16271;DHT22;8243;49.048;8.396;2024-03-02T04:50:58;1.80;99.90
16271;DHT22;8243;49.048;8.396;2024-03-02T04:53:23;1.70;99.90
16271;DHT22;8243;49.048;8.396;2024-03-02T04:55:49;1.90;99.90
16271;DHT22;8243;49.048;8.396;2024-03-02T04:58:35;1.80;99.90
16271;DHT22;8243;49.048;8.396;2024-03-02T05:01:01;1.60;99.90
16271;DHT22;8243;49.048;8.396;2024-03-02T05:03:26;1.60;99.90
16271;DHT22;8243;49.048;8.396;2024-03-02T05:05:53;1.60;99.90
16271;DHT22;8243;49.048;8.396;2024-03-02T05:08:18;1.60;99.90
16271;DHT22;8243;49.048;8.396;2024-03-02T05:10:44;1.50;99.90
16271;DHT22;8243;49.048;8.396;2024-03-02T05:13:09;1.70;99.90
16271;DHT22;8243;49.048;8.396;2024-03-02T05:15:35;1.60;99.90
16271;DHT22;8243;49.048;8.396;2024-03-02T05:18:01;1.60;99.90
16271;DHT22;8243;49.048;8.396;2024-03-02T05:20:28;1.60;99.90
16271;DHT22;8243;49.048;8.396;2024-03-02T05:22:53;1.60;99.90
16271;DHT22;8243;49.048;8.396;2024-03-02T05:25:19;1.80;99.90
16271;DHT22;8243;49.048;8.396;2024-03-02T05:27:44;1.50;99.90
16271;DHT22;8243;49.048;8.396;2024-03-02T05:30:10;1.60;99.90
16271;DHT22;8243;49.048;8.396;2024-03-02T05:32:36;1.50;99.90
16271;DHT22;8243;49.048;8.396;2024-03-02T05:35:01;1.50;99.90
16271;DHT22;8243;49.048;8.396;2024-03-02T05:37:28;1.30;99.90
16271;DHT22;8243;49.048;8.396;2024-03-02T05:39:53;1.20;99.90
16271;DHT22;8243;49.048;8.396;2024-03-02T05:42:19;1.10;99.90
16271;DHT22;8243;49.048;8.396;2024-03-02T05:44:44;1.20;99.90
16271;DHT22;8243;49.048;8.396;2024-03-02T05:47:10;1.00;99.90
16271;DHT22;8243;49.048;8.396;2024-03-02T05:49:35;1.10;99.90
16271;DHT22;8243;49.048;8.396;2024-03-02T05:52:01;1.20;99.90
16271;DHT22;8243;49.048;8.396;2024-03-02T05:54:35;1.20;99.90
16271;DHT22;8243;49.048;8.396;2024-03-02T05:57:00;1.20;99.90
16271;DHT22;8243;49.048;8.396;2024-03-02T05:59:48;1.30;99.90
16271;DHT22;8243;49.048;8.396;2024-03-02T06:02:13;1.20;99.90
16271;DHT22;8243;49.048;8.396;2024-03-02T06:04:39;1.30;99.90
16271;DHT22;8243;49.048;8.396;2024-03-02T06:07:04;1.20;99.90
16271;DHT22;8243;49.048;8.396;2024-03-02T06:09:30;1.20;99.90
16271;DHT22;8243;49.048;8.396;2024-03-02T06:11:57;1.20;99.90
16271;DHT22;8243;49.048;8.396;2024-03-02T06:14:22;1.00;99.90
16271;DHT22;8243;49.048;8.396;2024-03-02T06:16:56;1.10;99.90
16271;DHT22;8243;49.048;8.396;2024-03-02T06:19:22;1.10;99.90
16271;DHT22;8243;49.048;8.396;2024-03-02T06:21:48;1.10;99.90
16271;DHT22;8243;49.048;8.396;2024-03-02T06:24:15;1.40;99.90
16271;DHT22;8243;49.048;8.396;2024-03-02T06:26:41;1.20;99.90
16271;DHT22;8243;49.048;8.396;2024-03-02T06:29:06;1.30;99.90
16271;DHT22;8243;49.048;8.396;2024-03-02T06:31:33;1.20;99.90
16271;DHT22;8243;49.048;8.396;2024-03-02T06:34:02;1.50;99.90
16271;DHT22;8243;49.048;8.396;2024-03-02T06:36:30;1.30;99.90
16271;DHT22;8243;49.048;8.396;2024-03-02T06:38:56;1.40;99.90
16271;DHT22;8243;49.048;8.396;2024-03-02T06:41:29;1.60;99.90
16271;DHT22;8243;49.048;8.396;2024-03-02T06:43:55;1.50;99.90
16271;DHT22;8243;49.048;8.396;2024-03-02T06:46:25;1.50;99.90
16271;DHT22;8243;49.048;8.396;2024-03-02T06:48:51;1.90;99.90
16271;DHT22;8243;49.048;8.396;2024-03-02T06:51:16;2.00;99.90
16271;DHT22;8243;49.048;8.396;2024-03-02T06:53:42;1.90;99.90
16271;DHT22;8243;49.048;8.396;2024-03-02T06:56:07;2.00;99.90
16271;DHT22;8243;49.048;8.396;2024-03-02T06:58:33;2.20;99.90
16271;DHT22;8243;49.048;8.396;2024-03-02T07:00:59;2.00;99.90
16271;DHT22;8243;49.048;8.396;2024-03-02T07:03:34;1.90;99.90
16271;DHT22;8243;49.048;8.396;2024-03-02T07:06:07;1.80;99.90
16271;DHT22;8243;49.048;8.396;2024-03-02T07:08:35;1.90;99.90
16271;DHT22;8243;49.048;8.396;2024-03-02T07:11:00;2.10;99.90
16271;DHT22;8243;49.048;8.396;2024-03-02T07:13:26;2.20;99.90
16271;DHT22;8243;49.048;8.396;2024-03-02T07:15:59;2.40;99.90
16271;DHT22;8243;49.048;8.396;2024-03-02T07:18:44;3.10;99.90
16271;DHT22;8243;49.048;8.396;2024-03-02T07:21:17;4.90;99.90
16271;DHT22;8243;49.048;8.396;2024-03-02T07:23:46;6.20;99.90
16271;DHT22;8243;49.048;8.396;2024-03-02T07:26:11;7.30;99.90
16271;DHT22;8243;49.048;8.396;2024-03-02T07:28:39;7.80;99.90
16271;DHT22;8243;49.048;8.396;2024-03-02T07:31:05;8.60;99.90
16271;DHT22;8243;49.048;8.396;2024-03-02T07:33:39;9.20;99.90
16271;DHT22;8243;49.048;8.396;2024-03-02T07:36:05;9.80;97.00
16271;DHT22;8243;49.048;8.396;2024-03-02T07:38:31;10.40;92.20
16271;DHT22;8243;49.048;8.396;2024-03-02T07:40:59;11.50;82.80
16271;DHT22;8243;49.048;8.396;2024-03-02T07:43:25;11.70;76.50
16271;DHT22;8243;49.048;8.396;2024-03-02T07:45:51;12.20;69.20
16271;DHT22;8243;49.048;8.396;2024-03-02T07:48:17;12.60;64.50
16271;DHT22;8243;49.048;8.396;2024-03-02T07:50:43;13.20;55.90
16271;DHT22;8243;49.048;8.396;2024-03-02T07:53:08;13.50;47.80
16271;DHT22;8243;49.048;8.396;2024-03-02T07:55:34;13.20;43.50
16271;DHT22;8243;49.048;8.396;2024-03-02T07:58:02;13.30;40.10
16271;DHT22;8243;49.048;8.396;2024-03-02T08:00:28;13.50;37.00
16271;DHT22;8243;49.048;8.396;2024-03-02T08:02:54;13.30;34.20
16271;DHT22;8243;49.048;8.396;2024-03-02T08:05:20;13.70;30.80
16271;DHT22;8243;49.048;8.396;2024-03-02T08:07:47;13.80;29.40
16271;DHT22;8243;49.048;8.396;2024-03-02T08:10:13;14.20;27.80
16271;DHT22;8243;49.048;8.396;2024-03-02T08:12:39;14.80;25.60
16271;DHT22;8243;49.048;8.396;2024-03-02T08:15:07;14.70;25.20
16271;DHT22;8243;49.048;8.396;2024-03-02T08:17:33;14.60;23.10
16271;DHT22;8243;49.048;8.396;2024-03-02T08:19:58;13.90;24.10
16271;DHT22;8243;49.048;8.396;2024-03-02T08:22:24;13.60;24.60
16271;DHT22;8243;49.048;8.396;2024-03-02T08:24:53;14.40;22.90
16271;DHT22;8243;49.048;8.396;2024-03-02T08:27:18;14.70;21.70
16271;DHT22;8243;49.048;8.396;2024-03-02T08:29:44;14.50;20.70
16271;DHT22;8243;49.048;8.396;2024-03-02T08:32:10;14.30;21.30
16271;DHT22;8243;49.048;8.396;2024-03-02T08:34:35;14.00;19.90
16271;DHT22;8243;49.048;8.396;2024-03-02T08:37:02;13.90;19.90
16271;DHT22;8243;49.048;8.396;2024-03-02T08:39:28;13.70;21.00
16271;DHT22;8243;49.048;8.396;2024-03-02T08:41:54;14.20;20.60
16271;DHT22;8243;49.048;8.396;2024-03-02T08:44:22;14.60;19.20
16271;DHT22;8243;49.048;8.396;2024-03-02T08:46:48;14.10;18.90
16271;DHT22;8243;49.048;8.396;2024-03-02T08:49:13;14.10;19.40
16271;DHT22;8243;49.048;8.396;2024-03-02T08:51:39;14.40;18.70
16271;DHT22;8243;49.048;8.396;2024-03-02T08:54:05;15.40;18.20
16271;DHT22;8243;49.048;8.396;2024-03-02T08:56:31;15.50;18.50
16271;DHT22;8243;49.048;8.396;2024-03-02T08:58:57;15.50;16.30
16271;DHT22;8243;49.048;8.396;2024-03-02T09:01:23;15.30;16.00
16271;DHT22;8243;49.048;8.396;2024-03-02T09:03:49;15.30;16.50
16271;DHT22;8243;49.048;8.396;2024-03-02T09:06:14;14.30;18.10
16271;DHT22;8243;49.048;8.396;2024-03-02T09:08:42;14.00;18.70
16271;DHT22;8243;49.048;8.396;2024-03-02T09:11:10;13.70;19.30
16271;DHT22;8243;49.048;8.396;2024-03-02T09:13:36;13.10;20.80
16271;DHT22;8243;49.048;8.396;2024-03-02T09:16:03;13.50;20.30
16271;DHT22;8243;49.048;8.396;2024-03-02T09:18:30;14.40;19.40
16271;DHT22;8243;49.048;8.396;2024-03-02T09:20:56;15.20;17.10
16271;DHT22;8243;49.048;8.396;2024-03-02T09:23:32;15.00;18.10
16271;DHT22;8243;49.048;8.396;2024-03-02T09:26:00;15.80;16.60
16271;DHT22;8243;49.048;8.396;2024-03-02T09:28:48;15.80;16.00
16271;DHT22;8243;49.048;8.396;2024-03-02T09:31:17;15.60;17.00
16271;DHT22;8243;49.048;8.396;2024-03-02T09:34:10;16.50;16.10
16271;DHT22;8243;49.048;8.396;2024-03-02T09:43:31;16.00;15.90
16271;DHT22;8243;49.048;8.396;2024-03-02T09:45:59;16.80;13.60
16271;DHT22;8243;49.048;8.396;2024-03-02T09:48:26;15.50;15.10
16271;DHT22;8243;49.048;8.396;2024-03-02T09:50:54;16.40;14.90
16271;DHT22;8243;49.048;8.396;2024-03-02T09:53:43;15.30;14.40
16271;DHT22;8243;49.048;8.396;2024-03-02T09:56:09;14.90;17.10
16271;DHT22;8243;49.048;8.396;2024-03-02T09:58:36;15.70;16.50
16271;DHT22;8243;49.048;8.396;2024-03-02T10:01:06;15.20;16.10
16271;DHT22;8243;49.048;8.396;2024-03-02T10:03:34;15.20;15.60
16271;DHT22;8243;49.048;8.396;2024-03-02T10:06:22;15.40;16.50
16271;DHT22;8243;49.048;8.396;2024-03-02T10:08:55;15.90;16.20
16271;DHT22;8243;49.048;8.396;2024-03-02T10:11:32;16.20;14.90
16271;DHT22;8243;49.048;8.396;2024-03-02T10:14:11;16.00;14.70
16271;DHT22;8243;49.048;8.396;2024-03-02T10:17:01;14.80;16.90
16271;DHT22;8243;49.048;8.396;2024-03-02T10:19:46;14.80;17.80
16271;DHT22;8243;49.048;8.396;2024-03-02T10:22:25;15.00;17.40
16271;DHT22;8243;49.048;8.396;2024-03-02T10:24:52;15.10;17.00
16271;DHT22;8243;49.048;8.396;2024-03-02T10:27:23;16.00;16.80
16271;DHT22;8243;49.048;8.396;2024-03-02T10:29:49;15.60;15.70
16271;DHT22;8243;49.048;8.396;2024-03-02T10:32:16;14.60;17.60
16271;DHT22;8243;49.048;8.396;2024-03-02T10:34:44;14.90;18.40
16271;DHT22;8243;49.048;8.396;2024-03-02T10:37:24;15.40;17.50
16271;DHT22;8243;49.048;8.396;2024-03-02T10:40:11;15.30;16.60
16271;DHT22;8243;49.048;8.396;2024-03-02T10:42:55;14.40;17.70
16271;DHT22;8243;49.048;8.396;2024-03-02T10:45:21;13.80;19.70
16271;DHT22;8243;49.048;8.396;2024-03-02T10:47:48;13.70;19.80
16271;DHT22;8243;49.048;8.396;2024-03-02T10:50:14;13.80;19.80
16271;DHT22;8243;49.048;8.396;2024-03-02T10:52:39;13.70;20.90
16271;DHT22;8243;49.048;8.396;2024-03-02T10:55:06;13.90;21.20
16271;DHT22;8243;49.048;8.396;2024-03-02T10:57:42;13.90;20.80
16271;DHT22;8243;49.048;8.396;2024-03-02T11:00:12;14.00;20.10
16271;DHT22;8243;49.048;8.396;2024-03-02T11:02:56;14.20;20.20
16271;DHT22;8243;49.048;8.396;2024-03-02T11:05:31;14.10;20.20
16271;DHT22;8243;49.048;8.396;2024-03-02T11:08:00;14.40;19.80
16271;DHT22;8243;49.048;8.396;2024-03-02T11:10:57;14.40;20.10
16271;DHT22;8243;49.048;8.396;2024-03-02T11:13:32;14.70;19.40
16271;DHT22;8243;49.048;8.396;2024-03-02T11:16:14;14.70;18.40
16271;DHT22;8243;49.048;8.396;2024-03-02T11:18:43;14.70;17.10
16271;DHT22;8243;49.048;8.396;2024-03-02T11:21:09;14.60;17.60
16271;DHT22;8243;49.048;8.396;2024-03-02T11:23:35;15.10;18.10
16271;DHT22;8243;49.048;8.396;2024-03-02T11:26:19;15.60;17.00
16271;DHT22;8243;49.048;8.396;2024-03-02T11:28:46;15.90;15.80
16271;DHT22;8243;49.048;8.396;2024-03-02T11:31:11;15.80;14.40
16271;DHT22;8243;49.048;8.396;2024-03-02T11:33:37;15.70;15.20
16271;DHT22;8243;49.048;8.396;2024-03-02T11:36:06;15.80;14.10
16271;DHT22;8243;49.048;8.396;2024-03-02T11:38:33;15.40;14.30
16271;DHT22;8243;49.048;8.396;2024-03-02T11:41:01;15.50;14.80
16271;DHT22;8243;49.048;8.396;2024-03-02T11:43:30;15.60;14.40
16271;DHT22;8243;49.048;8.396;2024-03-02T11:46:00;16.00;15.10
16271;DHT22;8243;49.048;8.396;2024-03-02T11:48:29;16.50;13.90
16271;DHT22;8243;49.048;8.396;2024-03-02T11:50:58;16.50;13.40
16271;DHT22;8243;49.048;8.396;2024-03-02T11:53:25;16.70;14.30
16271;DHT22;8243;49.048;8.396;2024-03-02T11:55:55;16.70;11.80
16271;DHT22;8243;49.048;8.396;2024-03-02T11:58:22;16.50;10.80
16271;DHT22;8243;49.048;8.396;2024-03-02T12:00:53;16.20;10.70
16271;DHT22;8243;49.048;8.396;2024-03-02T12:03:23;16.00;10.80
16271;DHT22;8243;49.048;8.396;2024-03-02T12:05:51;15.80;10.90
16271;DHT22;8243;49.048;8.396;2024-03-02T12:08:16;15.80;11.30
16271;DHT22;8243;49.048;8.396;2024-03-02T12:10:42;15.60;12.40
16271;DHT22;8243;49.048;8.396;2024-03-02T12:13:10;15.70;12.30
16271;DHT22;8243;49.048;8.396;2024-03-02T12:15:39;16.00;11.70
16271;DHT22;8243;49.048;8.396;2024-03-02T12:18:09;16.10;13.10
16271;DHT22;8243;49.048;8.396;2024-03-02T12:20:35;16.60;12.50
16271;DHT22;8243;49.048;8.396;2024-03-02T12:23:02;16.90;10.50
16271;DHT22;8243;49.048;8.396;2024-03-02T12:35:57;17.30;10.40
16271;DHT22;8243;49.048;8.396;2024-03-02T12:38:48;17.00;9.70
16271;DHT22;8243;49.048;8.396;2024-03-02T12:41:38;16.80;10.90
16271;DHT22;8243;49.048;8.396;2024-03-02T12:44:05;17.10;10.40
16271;DHT22;8243;49.048;8.396;2024-03-02T12:46:31;17.30;10.60
16271;DHT22;8243;49.048;8.396;2024-03-02T12:52:13;17.60;10.10
16271;DHT22;8243;49.048;8.396;2024-03-02T12:54:59;17.30;10.20
16271;DHT22;8243;49.048;8.396;2024-03-02T12:57:26;17.30;9.70
16271;DHT22;8243;49.048;8.396;2024-03-02T13:00:09;16.90;10.70
16271;DHT22;8243;49.048;8.396;2024-03-02T13:02:42;17.00;11.10
16271;DHT22;8243;49.048;8.396;2024-03-02T13:05:09;17.40;10.90
16271;DHT22;8243;49.048;8.396;2024-03-02T13:08:01;17.40;10.80
16271;DHT22;8243;49.048;8.396;2024-03-02T13:10:28;16.70;11.30
16271;DHT22;8243;49.048;8.396;2024-03-02T13:15:56;17.00;11.10
16271;DHT22;8243;49.048;8.396;2024-03-02T13:18:29;17.00;10.80
16271;DHT22;8243;49.048;8.396;2024-03-02T13:21:05;17.00;10.90
16271;DHT22;8243;49.048;8.396;2024-03-02T13:23:41;17.50;10.40
16271;DHT22;8243;49.048;8.396;2024-03-02T13:26:07;17.60;10.00
16271;DHT22;8243;49.048;8.396;2024-03-02T13:28:38;17.40;10.40
16271;DHT22;8243;49.048;8.396;2024-03-02T13:31:04;17.30;10.80
16271;DHT22;8243;49.048;8.396;2024-03-02T13:33:52;17.40;11.30
16271;DHT22;8243;49.048;8.396;2024-03-02T13:36:44;17.20;10.90
16271;DHT22;8243;49.048;8.396;2024-03-02T13:39:24;16.90;11.50
16271;DHT22;8243;49.048;8.396;2024-03-02T13:42:31;16.50;11.80
16271;DHT22;8243;49.048;8.396;2024-03-02T13:45:26;16.30;11.70
16271;DHT22;8243;49.048;8.396;2024-03-02T13:48:02;16.60;12.10
16271;DHT22;8243;49.048;8.396;2024-03-02T13:51:00;16.80;12.30
16271;DHT22;8243;49.048;8.396;2024-03-02T13:53:35;16.90;12.10
16271;DHT22;8243;49.048;8.396;2024-03-02T13:56:06;16.70;12.10
16271;DHT22;8243;49.048;8.396;2024-03-02T13:58:33;16.70;12.70
16271;DHT22;8243;49.048;8.396;2024-03-02T14:00:59;16.70;12.10
16271;DHT22;8243;49.048;8.396;2024-03-02T14:03:26;16.60;12.50
16271;DHT22;8243;49.048;8.396;2024-03-02T14:05:53;16.50;12.60
16271;DHT22;8243;49.048;8.396;2024-03-02T14:08:18;16.60;12.70
16271;DHT22;8243;49.048;8.396;2024-03-02T14:10:53;16.30;13.30
16271;DHT22;8243;49.048;8.396;2024-03-02T14:13:20;16.30;13.30
16271;DHT22;8243;49.048;8.396;2024-03-02T14:15:46;16.30;13.60
16271;DHT22;8243;49.048;8.396;2024-03-02T14:18:12;16.30;13.30
16271;DHT22;8243;49.048;8.396;2024-03-02T14:20:37;16.50;13.40
16271;DHT22;8243;49.048;8.396;2024-03-02T14:23:03;16.70;12.90
16271;DHT22;8243;49.048;8.396;2024-03-02T14:25:30;16.60;13.50
16271;DHT22;8243;49.048;8.396;2024-03-02T14:28:01;16.50;13.40
16271;DHT22;8243;49.048;8.396;2024-03-02T14:30:26;16.40;13.30
16271;DHT22;8243;49.048;8.396;2024-03-02T14:32:52;16.50;13.30
16271;DHT22;8243;49.048;8.396;2024-03-02T14:35:18;16.70;13.50
16271;DHT22;8243;49.048;8.396;2024-03-02T14:37:44;16.70;13.40
16271;DHT22;8243;49.048;8.396;2024-03-02T14:40:10;16.80;13.20
16271;DHT22;8243;49.048;8.396;2024-03-02T14:42:38;16.90;12.70
16271;DHT22;8243;49.048;8.396;2024-03-02T14:45:08;16.90;13.00
16271;DHT22;8243;49.048;8.396;2024-03-02T14:47:34;16.60;13.00
16271;DHT22;8243;49.048;8.396;2024-03-02T14:50:01;16.40;13.30
16271;DHT22;8243;49.048;8.396;2024-03-02T14:52:32;16.40;13.50
16271;DHT22;8243;49.048;8.396;2024-03-02T14:54:57;16.20;13.60
16271;DHT22;8243;49.048;8.396;2024-03-02T14:57:23;16.10;13.70
16271;DHT22;8243;49.048;8.396;2024-03-02T14:59:49;16.10;14.30
16271;DHT22;8243;49.048;8.396;2024-03-02T15:02:14;16.10;13.90
16271;DHT22;8243;49.048;8.396;2024-03-02T15:04:40;16.10;14.10
16271;DHT22;8243;49.048;8.396;2024-03-02T15:07:05;16.00;14.40
16271;DHT22;8243;49.048;8.396;2024-03-02T15:09:31;16.00;14.50
16271;DHT22;8243;49.048;8.396;2024-03-02T15:11:57;16.00;14.50
16271;DHT22;8243;49.048;8.396;2024-03-02T15:14:22;15.90;14.40
16271;DHT22;8243;49.048;8.396;2024-03-02T15:16:48;15.80;14.80
16271;DHT22;8243;49.048;8.396;2024-03-02T15:19:14;15.80;15.20
16271;DHT22;8243;49.048;8.396;2024-03-02T15:21:40;15.80;15.10
16271;DHT22;8243;49.048;8.396;2024-03-02T15:24:06;15.80;15.40
16271;DHT22;8243;49.048;8.396;2024-03-02T15:26:31;15.70;15.50
16271;DHT22;8243;49.048;8.396;2024-03-02T15:28:57;15.70;15.90
16271;DHT22;8243;49.048;8.396;2024-03-02T15:31:24;15.60;16.00
16271;DHT22;8243;49.048;8.396;2024-03-02T15:33:50;15.60;16.30
16271;DHT22;8243;49.048;8.396;2024-03-02T15:36:16;15.50;16.50
16271;DHT22;8243;49.048;8.396;2024-03-02T15:38:42;15.50;16.70
16271;DHT22;8243;49.048;8.396;2024-03-02T15:41:13;15.50;17.60
16271;DHT22;8243;49.048;8.396;2024-03-02T15:43:41;15.50;17.00
16271;DHT22;8243;49.048;8.396;2024-03-02T15:46:08;15.50;16.90
16271;DHT22;8243;49.048;8.396;2024-03-02T15:48:34;15.50;17.10
16271;DHT22;8243;49.048;8.396;2024-03-02T15:51:02;15.50;17.20
16271;DHT22;8243;49.048;8.396;2024-03-02T15:53:32;15.40;17.70
16271;DHT22;8243;49.048;8.396;2024-03-02T15:55:58;15.30;18.10
16271;DHT22;8243;49.048;8.396;2024-03-02T15:58:24;15.30;17.90
16271;DHT22;8243;49.048;8.396;2024-03-02T16:00:50;15.30;18.10
16271;DHT22;8243;49.048;8.396;2024-03-02T16:03:15;15.20;18.10
16271;DHT22;8243;49.048;8.396;2024-03-02T16:05:41;15.20;18.10
16271;DHT22;8243;49.048;8.396;2024-03-02T16:08:07;15.20;18.60
16271;DHT22;8243;49.048;8.396;2024-03-02T16:10:32;15.20;19.30
16271;DHT22;8243;49.048;8.396;2024-03-02T16:12:58;15.10;18.10
16271;DHT22;8243;49.048;8.396;2024-03-02T16:15:26;14.90;18.60
16271;DHT22;8243;49.048;8.396;2024-03-02T16:17:53;14.80;18.60
16271;DHT22;8243;49.048;8.396;2024-03-02T16:20:19;14.80;18.70
16271;DHT22;8243;49.048;8.396;2024-03-02T16:22:44;14.70;19.30
16271;DHT22;8243;49.048;8.396;2024-03-02T16:25:10;14.60;19.40
16271;DHT22;8243;49.048;8.396;2024-03-02T16:27:35;14.50;19.90